Notice: Undefined offset: 173 in /var/www/vhosts/pa0isk.nl/httpdocs/pwsWD/w34_livedata.php on line 151
Weather34 Metar Aviation Weather Data Popup
9°C Temp
'.PHP_EOL;
6°C Dauwpunt
82% Vochtigheid
Temperatuur
26 KM/H
16 MPH
14 KTS
250°
West Zuid
West

Wind Snelheid
Wat bewolking
Luchtdruk 1017.92 (hPa)- 30.06 (in)
Zicht 6.2 (mi) - 10 (km)

Huidig weer
EHRD
Locatie Rotterdam 10(km)
Metar:
EHRD 191025Z AUTO 25014KT 220V280 9999 FEW014 09/06 Q1018 NOSIG
Tue 19th February 11:25 am

Vliegveld
  Metar Aviation API Data Provided by https://www.checkwx.com/